Time;durP1;ratioP1;P1;durP2;ratioP2;P2;SDS_P1;SDS_P2;PMS_P1;PMS_P2;Temp;Humidity;BMP_temperature;BMP_pressure;BME280_temperature;BME280_humidity;BME280_pressure;Samples;Min_cycle;Max_cycle;Signal;HPM_P1;HPM_P2
2021/05/19 00:02:20;;;;;;;6.87;3.93;;;;;;;10.97;61.51;98555.09;127410;1098;64339;-77
2021/05/19 00:04:47;;;;;;;8.03;3.90;;;;;;;10.96;61.64;98556.92;127417;1098;64416;-77
2021/05/19 00:07:14;;;;;;;11.37;5.00;;;;;;;10.94;61.35;98561.55;127413;1098;64376;-77
2021/05/19 00:09:40;;;;;;;9.80;3.97;;;;;;;10.92;61.40;98560.80;127386;1098;63230;-77
2021/05/19 00:12:08;;;;;;;7.53;4.23;;;;;;;10.89;61.67;98563.73;127436;1098;64208;-77
2021/05/19 00:14:45;;;;;;;7.60;3.77;;;;;;;10.87;61.56;98562.99;127404;1090;64665;-76
2021/05/19 00:17:12;;;;;;;7.27;4.17;;;;;;;10.84;61.55;98565.92;127374;1098;64206;-77
2021/05/19 00:19:39;;;;;;;7.97;4.30;;;;;;;10.80;61.71;98562.64;127404;1090;63785;-77
2021/05/19 00:22:05;;;;;;;11.37;4.50;;;;;;;10.73;61.54;98561.44;127387;1098;64200;-77
2021/05/19 00:24:32;;;;;;;7.73;4.47;;;;;;;10.66;61.73;98560.23;127385;1098;64329;-77
2021/05/19 00:26:59;;;;;;;11.23;4.97;;;;;;;10.61;61.67;98562.42;127421;1098;64217;-77
2021/05/19 00:29:25;;;;;;;9.47;4.70;;;;;;;10.53;61.87;98563.04;127406;1090;63121;-77
2021/05/19 00:31:52;;;;;;;8.33;4.30;;;;;;;10.46;62.08;98569.84;127390;1098;64288;-77
2021/05/19 00:34:19;;;;;;;7.63;4.23;;;;;;;10.42;62.32;98568.38;127426;1097;64313;-76
2021/05/19 00:36:46;;;;;;;8.43;4.60;;;;;;;10.40;62.23;98570.33;126513;1098;64268;-77
2021/05/19 00:39:15;;;;;;;6.13;4.30;;;;;;;10.38;62.30;98569.61;126514;1098;64153;-77
2021/05/19 00:41:43;;;;;;;7.17;4.33;;;;;;;10.36;62.08;98563.52;127392;1098;64211;-76
2021/05/19 00:44:14;;;;;;;11.27;5.27;;;;;;;10.37;62.25;98572.38;126565;1097;64262;-77
2021/05/19 00:46:45;;;;;;;5.93;4.15;;;;;;;10.36;62.55;98573.34;127370;1098;64133;-77
2021/05/19 00:49:16;;;;;;;10.73;4.50;;;;;;;10.34;62.36;98572.63;127404;1098;64323;-76
2021/05/19 00:51:48;;;;;;;7.03;4.80;;;;;;;10.30;62.41;98572.02;127376;1098;64338;-76
2021/05/19 00:54:21;;;;;;;6.78;4.25;;;;;;;10.31;62.46;98576.41;127404;1098;64275;-76
2021/05/19 00:56:51;;;;;;;7.70;4.33;;;;;;;10.33;62.62;98576.28;127356;1098;64219;-76
2021/05/19 00:59:23;;;;;;;7.40;4.28;;;;;;;10.37;62.47;98577.71;127379;1097;64198;-77
2021/05/19 01:02:00;;;;;;;4.90;3.27;;;;;;;10.38;62.56;98571.43;127406;1097;64197;-76
2021/05/19 01:04:26;;;;;;;7.03;4.03;;;;;;;10.40;62.72;98578.34;127376;1098;64450;-77
2021/05/19 01:07:08;;;;;;;5.70;4.05;;;;;;;10.41;62.75;98572.02;127440;1098;64204;-76
2021/05/19 01:09:35;;;;;;;6.30;4.47;;;;;;;10.42;62.78;98580.88;127382;1098;64422;-76
2021/05/19 01:12:09;;;;;;;6.93;4.30;;;;;;;10.42;62.66;98580.88;127401;1091;64281;-77
2021/05/19 01:14:37;;;;;;;7.53;4.67;;;;;;;10.39;62.88;98579.31;127409;1098;64192;-76
2021/05/19 01:17:05;;;;;;;7.75;4.05;;;;;;;10.39;62.79;98576.64;127373;1098;63221;-76
2021/05/19 01:19:38;;;;;;;9.23;3.97;;;;;;;10.36;62.81;98584.88;126514;1093;64412;-76
2021/05/19 01:22:10;;;;;;;9.13;4.40;;;;;;;10.34;63.01;98586.83;127369;1098;64217;-76
2021/05/19 01:24:48;;;;;;;5.47;3.87;;;;;;;10.34;63.07;98585.98;127368;1098;64326;-77
2021/05/19 01:27:21;;;;;;;;;;;;;;;10.34;63.13;98580.64;127434;1098;64206;-77
2021/05/19 01:29:56;;;;;;;4.97;3.53;;;;;;;10.35;63.03;98583.18;127353;1098;64294;-76
2021/05/19 01:32:28;;;;;;;4.77;3.43;;;;;;;10.38;63.13;98588.30;127382;1090;64294;-76
2021/05/19 01:34:55;;;;;;;7.97;3.67;;;;;;;10.40;63.13;98588.16;127364;1098;64198;-76
2021/05/19 01:37:23;;;;;;;4.30;3.50;;;;;;;10.38;63.04;98588.30;126548;1098;63026;-76
2021/05/19 01:39:56;;;;;;;7.73;3.83;;;;;;;10.37;63.28;98588.39;127396;1090;64291;-76
2021/05/19 01:42:23;;;;;;;5.20;3.80;;;;;;;10.34;63.19;98588.64;127365;1097;63042;-76
2021/05/19 01:44:55;;;;;;;5.60;3.37;;;;;;;10.32;63.41;98590.59;126560;1088;63035;-76
2021/05/19 01:47:42;;;;;;;3.37;2.93;;;;;;;10.32;63.25;98598.60;127407;1098;64365;-76
2021/05/19 01:50:13;;;;;;;8.17;3.60;;;;;;;10.28;63.49;98588.15;127410;1090;62796;-76
2021/05/19 01:52:41;;;;;;;8.27;3.70;;;;;;;10.25;63.54;98591.08;127381;1098;64224;-76
2021/05/19 01:55:16;;;;;;;4.93;3.50;;;;;;;10.20;63.64;98589.70;127415;1090;64201;-76
2021/05/19 01:57:45;;;;;;;5.98;4.23;;;;;;;10.16;63.52;98599.75;127382;1092;64184;-76
2021/05/19 02:00:17;;;;;;;8.30;4.00;;;;;;;10.14;63.82;98591.02;127381;1098;64265;-76
2021/05/19 02:02:58;;;;;;;7.53;4.00;;;;;;;10.13;63.65;98591.15;127378;1098;64428;-76
2021/05/19 02:05:31;;;;;;;6.30;3.73;;;;;;;10.14;63.71;98590.17;127374;1098;63048;-76
2021/05/19 02:08:00;;;;;;;5.30;3.73;;;;;;;10.13;63.71;98586.66;127389;1098;64201;-76
2021/05/19 02:10:39;;;;;;;6.17;3.60;;;;;;;10.12;63.97;98594.79;127386;1098;62970;-76
2021/05/19 02:13:09;;;;;;;10.20;4.43;;;;;;;10.07;63.89;98591.63;127388;1098;64256;-76
2021/05/19 02:15:37;;;;;;;6.00;4.00;;;;;;;10.02;64.15;98599.97;127408;1098;64339;-76
2021/05/19 02:18:04;;;;;;;6.37;4.00;;;;;;;9.98;64.05;98602.02;127388;1098;64189;-77
2021/05/19 02:20:35;;;;;;;7.00;4.63;;;;;;;9.99;64.12;98608.22;127390;1090;64185;-77
2021/05/19 02:23:15;;;;;;;8.13;4.77;;;;;;;9.95;64.16;98604.08;127382;1098;64424;-77
2021/05/19 02:25:42;;;;;;;4.17;3.73;;;;;;;9.98;64.25;98602.02;127421;1090;64267;-77
2021/05/19 02:28:11;;;;;;;7.43;4.00;;;;;;;10.01;64.28;98604.45;127424;1098;64294;-77
2021/05/19 02:30:58;;;;;;;5.93;3.90;;;;;;;10.05;64.33;98605.05;127408;1098;64147;-76
2021/05/19 02:33:30;;;;;;;10.47;4.23;;;;;;;10.10;64.38;98602.04;127371;1097;63032;-77
2021/05/19 02:35:57;;;;;;;5.03;4.07;;;;;;;10.15;64.36;98603.39;127372;1098;64240;-76
2021/05/19 02:38:48;;;;;;;;;;;;;;;;;;;;;
2021/05/19 02:41:19;;;;;;;4.10;3.70;;;;;;;10.26;64.66;98605.27;127403;1098;63782;-76
2021/05/19 02:43:48;;;;;;;4.73;4.23;;;;;;;10.26;64.56;98605.27;126523;1090;63796;-76
2021/05/19 02:46:17;;;;;;;5.10;3.97;;;;;;;10.24;64.74;98613.40;127373;1098;64246;-75
2021/05/19 02:48:44;;;;;;;8.93;4.80;;;;;;;10.21;64.46;98607.41;126527;1098;64291;-76
2021/05/19 02:51:11;;;;;;;6.20;4.17;;;;;;;10.17;64.55;98614.78;126529;1098;62973;-75
2021/05/19 02:53:58;;;;;;;7.43;3.67;;;;;;;10.14;64.43;98611.52;127427;1098;64208;-76
2021/05/19 02:56:37;;;;;;;6.60;4.00;;;;;;;10.14;64.63;98608.85;127417;1098;64256;-76
2021/05/19 02:59:05;;;;;;;4.20;3.70;;;;;;;10.14;64.61;98615.03;127074;1090;64307;-76
2021/05/19 03:01:32;;;;;;;6.70;4.37;;;;;;;10.19;64.59;98614.69;127431;1098;64201;-76
2021/05/19 03:03:58;;;;;;;5.90;4.37;;;;;;;10.21;64.56;98618.92;127401;1098;64416;-76
2021/05/19 03:06:25;;;;;;;8.45;4.15;;;;;;;10.21;64.49;98616.25;126563;1097;63099;-76
2021/05/19 03:08:52;;;;;;;8.93;3.80;;;;;;;10.19;64.71;98618.20;126525;1098;64300;-76
2021/05/19 03:11:27;;;;;;;7.10;4.20;;;;;;;10.20;64.59;98621.72;126522;1097;62367;-76
2021/05/19 03:13:54;;;;;;;5.95;3.75;;;;;;;10.22;64.69;98630.45;126733;1090;63072;-76
2021/05/19 03:16:21;;;;;;;5.70;4.07;;;;;;;10.22;64.79;98625.95;126499;1090;63434;-76
2021/05/19 03:19:00;;;;;;;6.70;3.90;;;;;;;10.26;64.75;98623.95;127418;1097;63762;-76
2021/05/19 03:21:27;;;;;;;9.10;4.27;;;;;;;10.31;64.64;98628.91;127405;1097;64191;-76
2021/05/19 03:23:54;;;;;;;7.60;3.93;;;;;;;10.33;64.62;98633.17;126515;1098;64268;-76
2021/05/19 03:26:20;;;;;;;7.70;4.07;;;;;;;10.34;64.60;98626.86;126530;1098;64325;-76
2021/05/19 03:28:47;;;;;;;6.33;4.03;;;;;;;10.35;64.69;98639.23;126515;1090;63639;-76
2021/05/19 03:31:15;;;;;;;6.10;4.03;;;;;;;10.35;64.61;98633.89;126574;1098;63764;-77
2021/05/19 03:33:42;;;;;;;4.97;3.30;;;;;;;10.35;65.06;98635.72;126539;1097;63436;-76
2021/05/19 03:36:11;;;;;;;3.40;3.00;;;;;;;10.37;64.93;98634.64;126510;1090;64205;-76
2021/05/19 03:38:45;;;;;;;8.00;3.50;;;;;;;10.36;64.92;98632.92;127429;1098;64282;-76
2021/05/19 03:41:12;;;;;;;4.10;3.70;;;;;;;10.37;64.56;98645.32;127410;1097;63434;-76
2021/05/19 03:43:39;;;;;;;6.17;4.23;;;;;;;10.38;64.80;98641.67;126570;1097;62354;-77
2021/05/19 03:46:09;;;;;;;5.37;3.70;;;;;;;10.37;64.89;98645.32;126533;1090;63143;-77
2021/05/19 03:48:36;;;;;;;5.33;3.87;;;;;;;10.35;64.96;98651.73;127408;1098;64461;-76
2021/05/19 03:51:08;;;;;;;5.30;3.83;;;;;;;10.24;65.12;98650.77;126801;1098;64272;-80
2021/05/19 03:54:14;;;;;;;7.87;3.87;;;;;;;10.07;65.43;98658.32;127368;1098;64233;-80
2021/05/19 03:57:06;;;;;;;8.65;4.40;;;;;;;9.93;65.79;98662.89;127424;1098;64227;-80
2021/05/19 03:59:46;;;;;;;6.23;4.43;;;;;;;9.87;65.91;98655.34;127363;1098;63025;-79
2021/05/19 04:02:50;;;;;;;7.07;4.43;;;;;;;9.88;66.36;98662.38;127407;1098;64339;-80
2021/05/19 04:06:01;;;;;;;6.47;4.23;;;;;;;9.88;66.68;98666.86;127354;1098;64223;-81
2021/05/19 04:08:54;;;;;;;6.13;4.10;;;;;;;9.94;66.57;98663.73;127405;1097;64329;-80
2021/05/19 04:11:42;;;;;;;4.77;3.83;;;;;;;9.98;66.24;98658.03;127410;1098;64225;-80
2021/05/19 04:14:30;;;;;;;6.27;3.70;;;;;;;10.04;66.55;98667.39;127376;1097;64326;-81
2021/05/19 04:17:35;;;;;;;6.43;4.13;;;;;;;10.09;66.36;98667.05;127477;1098;64336;-80
2021/05/19 04:20:35;;;;;;;7.53;5.17;;;;;;;10.09;66.52;98675.05;127415;1098;64423;-80
2021/05/19 04:23:23;;;;;;;5.87;4.10;;;;;;;10.00;66.31;98676.61;127386;1090;64200;-80
2021/05/19 04:26:28;;;;;;;5.50;3.75;;;;;;;9.96;66.38;98675.13;127398;1098;64252;-80
2021/05/19 04:29:12;;;;;;;5.23;3.70;;;;;;;9.98;66.69;98675.85;127407;1090;64287;-80
2021/05/19 04:31:44;;;;;;;4.50;3.37;;;;;;;9.89;66.58;98676.56;127372;1098;64157;-80
2021/05/19 04:34:39;;;;;;;4.37;3.60;;;;;;;9.82;66.72;98689.51;127373;1098;64262;-80
2021/05/19 04:37:21;;;;;;;6.35;4.20;;;;;;;9.74;66.87;98681.23;127418;1098;63763;-80
2021/05/19 04:40:28;;;;;;;8.60;4.53;;;;;;;9.74;66.89;98681.23;127422;1090;64224;-80
2021/05/19 04:43:05;;;;;;;8.93;4.87;;;;;;;9.79;67.18;98686.20;127435;1097;64188;-79
2021/05/19 04:45:35;;;;;;;8.93;5.27;;;;;;;9.75;67.02;98690.94;127387;1097;64230;-80
2021/05/19 04:48:10;;;;;;;6.53;5.25;;;;;;;9.74;67.41;98687.42;127455;1097;62692;-79
2021/05/19 04:51:13;;;;;;;6.40;4.50;;;;;;;9.73;67.65;98692.84;127373;1098;64256;-79
2021/05/19 04:54:10;;;;;;;6.93;5.10;;;;;;;9.69;67.09;98702.91;127406;1090;62436;-80
2021/05/19 04:56:58;;;;;;;9.10;4.70;;;;;;;9.67;67.43;98703.96;127405;1098;64201;-80
2021/05/19 04:59:47;;;;;;;8.83;4.80;;;;;;;9.64;67.42;98705.05;127329;1090;64249;-80
2021/05/19 05:02:37;;;;;;;6.53;4.53;;;;;;;9.60;67.81;98705.38;127414;1098;64227;-80
2021/05/19 05:05:27;;;;;;;6.70;4.57;;;;;;;9.55;67.59;98711.08;127442;1098;64452;-80
2021/05/19 05:08:03;;;;;;;8.53;4.30;;;;;;;9.61;67.61;98715.11;127385;1098;62344;-80
2021/05/19 05:10:53;;;;;;;7.23;4.30;;;;;;;9.65;67.89;98713.90;127351;1098;64288;-81
2021/05/19 05:13:41;;;;;;;6.73;4.40;;;;;;;9.75;67.71;98706.94;127367;1098;64224;-81
2021/05/19 05:16:33;;;;;;;7.67;5.07;;;;;;;9.83;67.63;98707.20;127402;1090;63300;-81
2021/05/19 05:20:10;;;;;;;;;;;;;;;;;;;;;
2021/05/19 05:23:06;;;;;;;;;;;;;;;10.06;67.87;98705.49;127416;1098;64291;-81
2021/05/19 05:25:49;;;;;;;8.13;5.13;;;;;;;10.10;67.75;98709.61;127375;1098;64262;-81
2021/05/19 05:29:29;;;;;;;6.70;5.08;;;;;;;10.09;67.63;98715.92;127393;1097;64336;-81
2021/05/19 05:32:10;;;;;;;7.60;4.40;;;;;;;10.13;67.40;98713.88;127345;1097;64338;-81
2021/05/19 05:35:10;;;;;;;8.15;4.95;;;;;;;10.07;67.47;98717.86;127370;1098;64297;-80
2021/05/19 05:37:53;;;;;;;12.33;5.40;;;;;;;10.03;67.43;98724.38;127364;1098;64243;-80
2021/05/19 05:41:06;;;;;;;;;;;;;;;;;;;;;
2021/05/19 05:43:57;;;;;;;7.53;5.20;;;;;;;10.03;67.53;98722.56;127420;1097;64426;-81
2021/05/19 05:46:40;;;;;;;6.50;4.90;;;;;;;10.20;67.97;98725.79;127415;1098;64269;-81
2021/05/19 05:49:24;;;;;;;11.93;5.53;;;;;;;10.35;67.75;98721.13;127398;1098;64192;-80
2021/05/19 05:51:57;;;;;;;9.90;5.13;;;;;;;10.54;67.73;98727.59;127406;1098;64259;-80
2021/05/19 05:54:27;;;;;;;6.93;4.90;;;;;;;10.72;67.72;98722.66;127393;1097;64221;-81
2021/05/19 05:57:10;;;;;;;7.83;5.17;;;;;;;10.75;67.61;98725.11;127329;1098;64198;-81
2021/05/19 05:59:48;;;;;;;7.40;4.57;;;;;;;10.82;67.43;98720.14;127385;1093;64323;-80
2021/05/19 06:02:19;;;;;;;5.90;4.37;;;;;;;10.89;67.66;98728.52;127403;1090;64150;-80
2021/05/19 06:04:46;;;;;;;7.70;4.13;;;;;;;11.04;67.39;98732.64;127139;1098;64230;-81
2021/05/19 06:07:26;;;;;;;8.13;4.30;;;;;;;11.09;67.09;98725.96;127419;1090;64265;-81
2021/05/19 06:10:17;;;;;;;4.90;3.20;;;;;;;11.13;66.93;98733.72;127400;1098;64192;-81
2021/05/19 06:13:09;;;;;;;11.97;4.57;;;;;;;11.20;67.25;98730.47;127387;1098;64153;-80
2021/05/19 06:16:05;;;;;;;;;;;;;;;;;;;;;
2021/05/19 06:19:01;;;;;;;4.77;2.97;;;;;;;11.32;67.17;98728.61;127403;1090;64246;-80
2021/05/19 06:27:19;;;;;;;;;;;;;;;;;;;;;
2021/05/19 06:30:56;;;;;;;;;;;;;;;;;;;;;
2021/05/19 06:34:02;;;;;;;10.17;3.37;;;;;;;11.42;67.33;98726.91;126647;1098;62986;-80
2021/05/19 06:37:12;;;;;;;;;;;;;;;;;;;;;
2021/05/19 06:44:34;;;;;;;4.77;3.37;;;;;;;12.34;67.18;98725.55;125509;1099;64350;-83
2021/05/19 06:47:45;;;;;;;3.70;3.00;;;;;;;12.69;67.01;98724.36;126163;1107;62686;-83
2021/05/19 06:50:44;;;;;;;6.67;3.50;;;;;;;13.07;66.58;98726.39;126198;1108;64243;-82
2021/05/19 06:57:55;;;;;;;6.55;3.65;;;;;;;14.26;65.99;98721.03;126040;1107;64490;-80
2021/05/19 07:00:54;;;;;;;;;;;;;;;;;;;;;
2021/05/19 07:03:35;;;;;;;4.90;3.73;;;;;;;15.90;65.58;98721.47;126193;1108;64412;-80
2021/05/19 07:06:13;;;;;;;5.27;3.73;;;;;;;15.86;64.33;98722.80;125767;1107;64185;-81
2021/05/19 07:08:55;;;;;;;4.90;3.70;;;;;;;15.62;64.18;98718.82;126265;1105;64271;-80
2021/05/19 07:11:52;;;;;;;6.60;3.67;;;;;;;15.53;64.70;98722.40;126622;1096;64236;-80
2021/05/19 07:14:46;;;;;;;6.50;4.10;;;;;;;15.49;65.08;98725.53;126615;1104;64212;-80
2021/05/19 07:17:48;;;;;;;7.90;4.80;;;;;;;15.66;64.57;98716.69;126024;1104;64534;-84
2021/05/19 07:20:28;;;;;;;6.33;4.30;;;;;;;15.94;65.02;98721.02;125795;1104;64364;-80
2021/05/19 07:23:10;;;;;;;4.57;3.87;;;;;;;16.18;64.05;98714.19;126640;1104;64217;-80
2021/05/19 07:25:42;;;;;;;6.20;3.73;;;;;;;16.02;63.51;98714.02;127015;1101;64201;-79
2021/05/19 07:28:14;;;;;;;6.37;4.03;;;;;;;15.90;63.52;98710.70;127011;1101;64275;-80
2021/05/19 07:30:47;;;;;;;5.13;4.07;;;;;;;15.73;64.00;98717.77;126127;1101;64317;-82
2021/05/19 07:33:29;;;;;;;5.50;3.87;;;;;;;15.68;64.36;98720.91;126952;1099;64163;-81
2021/05/19 07:36:01;;;;;;;6.73;3.90;;;;;;;15.61;64.59;98717.10;127134;1097;64285;-79
2021/05/19 07:38:31;;;;;;;10.20;4.83;;;;;;;15.52;64.46;98719.83;127308;1090;64268;-81
2021/05/19 07:40:57;;;;;;;8.27;4.50;;;;;;;15.23;64.44;98719.99;126949;1097;64652;-81
2021/05/19 07:43:37;;;;;;;7.23;4.27;;;;;;;15.10;65.06;98728.39;125523;1090;64304;-80
2021/05/19 07:46:12;;;;;;;9.13;5.80;;;;;;;14.92;64.92;98722.92;125559;1090;64256;-82
2021/05/19 07:48:44;;;;;;;9.63;5.40;;;;;;;14.78;65.32;98713.48;125821;1090;64342;-82
2021/05/19 07:51:14;;;;;;;223.87;143.70;;;;;;;14.74;65.32;98717.45;125591;1098;64694;-81
2021/05/19 07:53:44;;;;;;;147.20;91.50;;;;;;;14.52;64.81;98720.47;125688;1097;64461;-82
2021/05/19 07:56:27;;;;;;;90.97;61.60;;;;;;;14.33;65.59;98715.94;125744;1090;64226;-79
2021/05/19 07:59:10;;;;;;;21.97;14.50;;;;;;;14.25;65.42;98724.71;125708;1090;64249;-80
2021/05/19 08:04:56;;;;;;;11.87;6.73;;;;;;;14.28;65.70;98719.05;125694;1097;64297;-80
2021/05/19 08:07:30;;;;;;;9.63;5.60;;;;;;;14.40;65.62;98724.27;125762;1098;64458;-84
2021/05/19 08:10:01;;;;;;;13.33;8.40;;;;;;;14.27;65.12;98720.03;125576;1098;64349;-82
2021/05/19 08:12:37;;;;;;;7.83;5.10;;;;;;;14.21;65.48;98711.70;125708;1098;64371;-82
2021/05/19 08:15:05;;;;;;;5.50;4.50;;;;;;;14.27;65.29;98716.50;125696;1090;64348;-79
2021/05/19 08:17:43;;;;;;;7.40;4.20;;;;;;;14.09;64.94;98719.05;125761;1097;64390;-80
2021/05/19 08:20:11;;;;;;;8.30;5.57;;;;;;;13.95;65.12;98716.78;125613;1098;64325;-81
2021/05/19 08:22:50;;;;;;;6.17;4.60;;;;;;;13.82;64.94;98713.52;125618;1097;64274;-82
2021/05/19 08:25:22;;;;;;;6.67;4.97;;;;;;;13.64;64.80;98707.98;125756;1090;64243;-81
2021/05/19 08:27:52;;;;;;;6.87;5.10;;;;;;;13.60;65.61;98711.91;125710;1090;64846;-82
2021/05/19 08:30:29;;;;;;;9.43;5.03;;;;;;;13.73;65.60;98704.45;125845;1090;64390;-79
2021/05/19 08:32:58;;;;;;;11.33;5.45;;;;;;;13.76;65.25;98704.19;125612;1097;64281;-86
2021/05/19 08:35:40;;;;;;;9.55;5.55;;;;;;;13.87;65.14;98708.56;125760;1098;64403;-83
2021/05/19 08:38:07;;;;;;;8.95;4.85;;;;;;;13.96;64.55;98713.11;125793;1097;64310;-82
2021/05/19 08:40:37;;;;;;;7.93;5.57;;;;;;;14.03;64.81;98715.08;125782;1097;64403;-80
2021/05/19 08:43:08;;;;;;;8.87;4.57;;;;;;;14.36;64.93;98710.27;125852;1097;64390;-81
2021/05/19 08:45:49;;;;;;;8.90;5.27;;;;;;;15.04;65.67;98712.84;125736;1098;64321;-81
2021/05/19 08:48:30;;;;;;;9.53;5.33;;;;;;;15.48;64.36;98713.08;125585;1097;64317;-85
2021/05/19 08:51:16;;;;;;;8.63;5.90;;;;;;;15.58;64.60;98714.69;125683;1098;64329;-79
2021/05/19 08:54:04;;;;;;;14.90;7.77;;;;;;;15.77;64.31;98705.69;125680;1098;64400;-81
2021/05/19 08:56:36;;;;;;;20.23;11.10;;;;;;;15.72;64.48;98707.17;125713;1090;64280;-82
2021/05/19 08:59:15;;;;;;;10.63;4.60;;;;;;;15.80;63.75;98707.25;125508;1090;64334;-80
2021/05/19 09:01:48;;;;;;;8.83;4.10;;;;;;;15.57;63.67;98704.09;125583;1098;64362;-84
2021/05/19 09:04:30;;;;;;;9.77;6.97;;;;;;;15.64;63.89;98702.52;125723;1090;64259;-82
2021/05/19 09:06:59;;;;;;;12.37;7.13;;;;;;;15.84;63.80;98706.80;125635;1090;64355;-85
2021/05/19 09:09:38;;;;;;;10.50;4.73;;;;;;;16.03;63.36;98710.32;126024;1097;64339;-79
2021/05/19 09:12:21;;;;;;;31.47;19.80;;;;;;;15.95;63.48;98709.24;125757;1097;64265;-84
2021/05/19 09:14:59;;;;;;;19.05;10.55;;;;;;;15.85;63.36;98707.64;125730;1098;64326;-82
2021/05/19 09:18:09;;;;;;;;;;;;;;;;;;;;;
2021/05/19 09:21:02;;;;;;;26.17;13.10;;;;;;;15.76;64.28;98705.84;125669;1090;64335;-79
2021/05/19 09:23:49;;;;;;;10.03;5.80;;;;;;;15.67;64.05;98700.38;125854;1097;64339;-83
2021/05/19 09:26:42;;;;;;;;;;;;;;;;;;;;;
2021/05/19 09:29:40;;;;;;;10.83;4.40;;;;;;;15.80;63.88;98708.09;125702;1097;64369;-81
2021/05/19 09:32:20;;;;;;;7.07;4.43;;;;;;;16.63;63.17;98688.95;125633;1098;64390;-80
2021/05/19 09:34:52;;;;;;;8.33;4.00;;;;;;;16.83;63.59;98690.46;125832;1090;64709;-80
2021/05/19 09:37:29;;;;;;;8.27;3.97;;;;;;;16.99;63.94;98693.27;125707;1097;64431;-84
2021/05/19 09:40:47;;;;;;;8.13;3.77;;;;;;;16.95;62.79;98686.48;125584;1098;64390;-80
2021/05/19 09:43:37;;;;;;;9.17;4.60;;;;;;;16.72;63.04;98688.86;125357;1101;64306;-80
2021/05/19 09:46:12;;;;;;;12.13;4.43;;;;;;;16.65;62.93;98684.23;125362;1101;64237;-84
2021/05/19 09:48:46;;;;;;;6.35;4.25;;;;;;;17.19;63.35;98687.63;125149;1096;64309;-83
2021/05/19 09:51:36;;;;;;;5.33;3.53;;;;;;;17.98;62.60;98679.12;125267;1096;64545;-80
2021/05/19 09:54:42;;;;;;;5.90;3.10;;;;;;;18.27;62.39;98680.52;125134;1101;64326;-80
2021/05/19 09:57:38;;;;;;;7.23;4.17;;;;;;;18.48;62.18;98680.84;125207;1101;64380;-81
2021/05/19 10:00:22;;;;;;;5.53;3.47;;;;;;;18.36;61.44;98674.92;125237;1096;64497;-82
2021/05/19 10:02:56;;;;;;;10.13;3.83;;;;;;;18.12;61.50;98674.06;125128;1096;64361;-81
2021/05/19 10:05:46;;;;;;;9.65;3.25;;;;;;;18.13;61.95;98675.75;125105;1101;64396;-80
2021/05/19 10:08:24;;;;;;;8.00;3.00;;;;;;;18.55;61.91;98675.59;125282;1096;64783;-82
2021/05/19 10:11:14;;;;;;;13.57;4.70;;;;;;;19.10;61.60;98683.81;125244;1101;64451;-80
2021/05/19 10:17:20;;;;;;;27.93;16.23;;;;;;;19.67;60.60;98682.76;125048;1096;64310;-84
2021/05/19 10:20:02;;;;;;;14.67;5.07;;;;;;;19.82;59.47;98688.25;125549;1093;64339;-80
2021/05/19 10:22:34;;;;;;;30.50;20.25;;;;;;;19.81;59.22;98686.58;125607;1098;64310;-80
2021/05/19 10:25:18;;;;;;;14.77;6.77;;;;;;;19.55;59.02;98687.69;125793;1098;64297;-80
2021/05/19 10:28:14;;;;;;;;;;;;;;;;;;;;;
2021/05/19 10:30:57;;;;;;;11.93;3.30;;;;;;;17.39;60.03;98705.26;125761;1098;64215;-82
2021/05/19 10:33:30;;;;;;;13.65;3.45;;;;;;;16.74;60.56;98716.53;125834;1097;64262;-83
2021/05/19 10:36:18;;;;;;;11.03;3.00;;;;;;;16.18;60.67;98719.58;125640;1097;64333;-81
2021/05/19 10:38:47;;;;;;;9.35;3.10;;;;;;;15.91;61.16;98715.95;125724;1097;64368;-81
2021/05/19 10:41:41;;;;;;;8.33;1.73;;;;;;;15.67;61.08;98715.69;125801;1090;64261;-79
2021/05/19 10:44:10;;;;;;;1.40;1.30;;;;;;;15.61;60.88;98711.72;125575;1090;64335;-79
2021/05/19 10:47:08;;;;;;;1.70;1.43;;;;;;;15.60;61.22;98712.72;125635;1098;64395;-79
2021/05/19 10:49:50;;;;;;;2.03;1.10;;;;;;;15.62;61.41;98705.36;125632;1097;64373;-78
2021/05/19 11:01:33;;;;;;;4.40;1.20;;;;;;;17.03;59.22;98694.62;125640;1098;64333;-84
2021/05/19 11:04:24;;;;;;;5.90;1.40;;;;;;;16.78;58.53;98700.87;125706;1098;64412;-78
2021/05/19 11:06:57;;;;;;;11.23;2.20;;;;;;;16.60;59.15;98694.64;125625;1098;64317;-81
2021/05/19 11:09:25;;;;;;;9.93;2.20;;;;;;;16.60;59.33;98690.09;125861;1097;64570;-79
2021/05/19 11:12:20;;;;;;;14.30;2.30;;;;;;;16.62;59.85;98684.56;125623;1097;64316;-82
2021/05/19 11:14:50;;;;;;;10.23;2.40;;;;;;;16.65;60.00;98686.93;125632;1098;64326;-80
2021/05/19 11:20:24;;;;;;;6.60;2.70;;;;;;;16.91;59.84;98692.36;125640;1090;64255;-83
2021/05/19 11:23:09;;;;;;;11.90;4.37;;;;;;;16.90;59.37;98694.20;125660;1098;64371;-83
2021/05/19 11:25:48;;;;;;;35.53;14.03;;;;;;;16.87;59.55;98699.94;125707;1097;64310;-84
2021/05/19 11:29:01;;;;;;;8.93;4.97;;;;;;;16.86;59.48;98689.28;125619;1098;64237;-81
2021/05/19 11:31:42;;;;;;;5.10;3.00;;;;;;;16.83;59.38;98687.77;125905;1097;64256;-79
2021/05/19 11:34:36;;;;;;;15.20;6.73;;;;;;;16.78;59.15;98692.78;125663;1090;64317;-83
2021/05/19 11:38:00;;;;;;;27.10;8.87;;;;;;;16.71;59.07;98697.12;125697;1097;64368;-79
2021/05/19 11:40:55;;;;;;;9.93;4.40;;;;;;;16.64;59.01;98699.56;125592;1090;64304;-82
2021/05/19 11:43:38;;;;;;;5.13;3.13;;;;;;;16.86;58.88;98695.55;125771;1097;64335;-83
2021/05/19 11:46:23;;;;;;;6.87;2.60;;;;;;;16.78;58.99;98686.55;125817;1098;64335;-80
2021/05/19 11:49:10;;;;;;;3.00;2.70;;;;;;;16.70;58.34;98690.88;125853;1097;64323;-82
2021/05/19 11:52:20;;;;;;;7.65;4.75;;;;;;;16.63;58.84;98686.25;125782;1090;64300;-85
2021/05/19 11:54:52;;;;;;;17.80;8.93;;;;;;;16.95;59.21;98688.34;125883;1097;64221;-80
2021/05/19 11:57:34;;;;;;;3.45;3.15;;;;;;;17.32;58.81;98682.63;125739;1097;64358;-82
2021/05/19 12:00:18;;;;;;;4.63;3.10;;;;;;;17.89;59.90;98679.29;125649;1090;64310;-83
2021/05/19 12:02:56;;;;;;;3.87;2.33;;;;;;;18.45;59.69;98678.48;125781;1097;64387;-80
2021/05/19 12:05:23;;;;;;;4.17;2.90;;;;;;;18.75;58.58;98678.80;125680;1090;64462;-82
2021/05/19 12:07:52;;;;;;;10.00;6.83;;;;;;;18.85;57.93;98669.50;125725;1097;64320;-81
2021/05/19 12:10:20;;;;;;;3.93;2.70;;;;;;;18.96;57.57;98671.00;125675;1097;64316;-85
2021/05/19 12:12:57;;;;;;;6.83;4.30;;;;;;;19.08;57.88;98676.86;125744;1098;64339;-80
2021/05/19 12:15:24;;;;;;;6.40;4.63;;;;;;;19.33;57.40;98670.34;125873;1097;64211;-82
2021/05/19 12:18:03;;;;;;;10.77;8.40;;;;;;;19.09;57.34;98676.71;125614;1097;64303;-80
2021/05/19 12:20:38;;;;;;;5.43;4.13;;;;;;;18.79;57.79;98685.57;125667;1097;64726;-83
2021/05/19 12:23:08;;;;;;;3.35;2.70;;;;;;;18.42;57.50;98684.22;126514;1097;64304;-81
2021/05/19 12:25:39;;;;;;;2.50;2.30;;;;;;;17.95;57.46;98682.17;126315;1098;64496;-79
2021/05/19 12:28:10;;;;;;;4.57;2.53;;;;;;;17.34;57.42;98699.49;126282;1098;64520;-80
2021/05/19 12:31:03;;;;;;;3.73;1.67;;;;;;;16.82;57.00;98702.25;126428;1098;64438;-79
2021/05/19 12:33:47;;;;;;;23.10;12.25;;;;;;;16.39;57.25;98700.39;126059;1097;64280;-80
2021/05/19 12:36:41;;;;;;;7.90;3.43;;;;;;;16.07;57.76;98711.72;126641;1098;64367;-76
2021/05/19 12:39:11;;;;;;;7.37;1.80;;;;;;;15.80;57.75;98715.32;126504;1098;64284;-77
2021/05/19 12:41:44;;;;;;;7.10;2.60;;;;;;;15.69;57.69;98710.98;127163;1098;64326;-78
2021/05/19 12:44:15;;;;;;;5.37;2.17;;;;;;;15.75;57.98;98713.08;126499;1098;64317;-81
2021/05/19 12:47:07;;;;;;;6.40;2.73;;;;;;;16.14;58.42;98710.09;126885;1098;64239;-80
2021/05/19 12:49:41;;;;;;;5.13;2.80;;;;;;;16.84;58.30;98702.94;126903;1098;64230;-78
2021/05/19 12:52:21;;;;;;;8.80;2.60;;;;;;;17.12;57.13;98717.11;126944;1091;64211;-76
2021/05/19 12:54:52;;;;;;;2.80;2.07;;;;;;;16.82;57.57;98715.73;127401;1091;64365;-77
2021/05/19 12:57:28;;;;;;;11.63;3.47;;;;;;;16.65;57.61;98711.20;127382;1098;63757;-76
2021/05/19 13:00:21;;;;;;;6.00;3.10;;;;;;;16.57;57.58;98708.45;126910;1098;64316;-80
2021/05/19 13:02:57;;;;;;;11.30;5.10;;;;;;;16.46;58.13;98713.08;126529;1097;64255;-76
2021/05/19 13:05:30;;;;;;;6.93;4.20;;;;;;;16.60;58.25;98708.12;126768;1097;64345;-80
2021/05/19 13:08:18;;;;;;;7.63;3.97;;;;;;;16.81;58.39;98705.96;126933;1097;64232;-80
2021/05/19 13:10:51;;;;;;;4.83;3.20;;;;;;;16.86;57.55;98700.07;127051;1097;64140;-80
2021/05/19 13:18:50;;;;;;;5.40;3.70;;;;;;;17.57;57.03;98702.47;126773;1098;64373;-79